sensor_id;sensor_type;location;lat;lon;timestamp;P1;durP1;ratioP1;P2;durP2;ratioP2
37485;SDS011;23341;50.296;18.960;2024-02-26T00:00:03;44.88;;;22.00;;
37485;SDS011;23341;50.296;18.960;2024-02-26T00:02:34;61.30;;;28.60;;
37485;SDS011;23341;50.296;18.960;2024-02-26T00:05:04;254.03;;;102.80;;
37485;SDS011;23341;50.296;18.960;2024-02-26T00:07:34;78.57;;;37.63;;
37485;SDS011;23341;50.296;18.960;2024-02-26T00:10:01;86.97;;;40.17;;
37485;SDS011;23341;50.296;18.960;2024-02-26T00:12:29;76.35;;;36.67;;
37485;SDS011;23341;50.296;18.960;2024-02-26T00:14:57;62.70;;;31.17;;
37485;SDS011;23341;50.296;18.960;2024-02-26T00:17:24;51.50;;;26.23;;
37485;SDS011;23341;50.296;18.960;2024-02-26T00:19:52;52.75;;;25.77;;
37485;SDS011;23341;50.296;18.960;2024-02-26T00:22:19;52.65;;;24.92;;
37485;SDS011;23341;50.296;18.960;2024-02-26T00:24:49;46.10;;;22.98;;
37485;SDS011;23341;50.296;18.960;2024-02-26T00:27:16;53.67;;;26.10;;
37485;SDS011;23341;50.296;18.960;2024-02-26T00:29:44;63.05;;;26.55;;
37485;SDS011;23341;50.296;18.960;2024-02-26T00:32:11;49.55;;;23.55;;
37485;SDS011;23341;50.296;18.960;2024-02-26T00:34:39;48.88;;;25.02;;
37485;SDS011;23341;50.296;18.960;2024-02-26T00:37:06;64.72;;;29.65;;
37485;SDS011;23341;50.296;18.960;2024-02-26T00:39:34;46.83;;;23.50;;
37485;SDS011;23341;50.296;18.960;2024-02-26T00:42:03;45.95;;;22.63;;
37485;SDS011;23341;50.296;18.960;2024-02-26T00:44:31;80.32;;;34.13;;
37485;SDS011;23341;50.296;18.960;2024-02-26T00:46:58;128.20;;;54.03;;
37485;SDS011;23341;50.296;18.960;2024-02-26T00:49:25;41.60;;;21.40;;
37485;SDS011;23341;50.296;18.960;2024-02-26T00:51:53;38.97;;;19.85;;
37485;SDS011;23341;50.296;18.960;2024-02-26T00:54:21;46.90;;;21.63;;
37485;SDS011;23341;50.296;18.960;2024-02-26T00:56:48;44.72;;;21.88;;
37485;SDS011;23341;50.296;18.960;2024-02-26T00:59:17;38.03;;;22.00;;
37485;SDS011;23341;50.296;18.960;2024-02-26T01:01:45;38.47;;;21.55;;
37485;SDS011;23341;50.296;18.960;2024-02-26T01:04:13;41.70;;;22.20;;
37485;SDS011;23341;50.296;18.960;2024-02-26T01:06:40;40.20;;;20.75;;
37485;SDS011;23341;50.296;18.960;2024-02-26T01:09:07;40.00;;;20.35;;
37485;SDS011;23341;50.296;18.960;2024-02-26T01:11:35;41.55;;;21.63;;
37485;SDS011;23341;50.296;18.960;2024-02-26T01:14:03;32.25;;;19.88;;
37485;SDS011;23341;50.296;18.960;2024-02-26T01:16:31;37.17;;;20.52;;
37485;SDS011;23341;50.296;18.960;2024-02-26T01:18:59;39.80;;;20.40;;
37485;SDS011;23341;50.296;18.960;2024-02-26T01:21:27;32.50;;;19.65;;
37485;SDS011;23341;50.296;18.960;2024-02-26T01:23:55;41.10;;;20.92;;
37485;SDS011;23341;50.296;18.960;2024-02-26T01:26:23;42.05;;;22.00;;
37485;SDS011;23341;50.296;18.960;2024-02-26T01:28:50;40.33;;;19.48;;
37485;SDS011;23341;50.296;18.960;2024-02-26T01:31:18;44.22;;;22.48;;
37485;SDS011;23341;50.296;18.960;2024-02-26T01:33:47;37.47;;;21.48;;
37485;SDS011;23341;50.296;18.960;2024-02-26T01:36:14;36.97;;;20.48;;
37485;SDS011;23341;50.296;18.960;2024-02-26T01:38:42;32.97;;;19.20;;
37485;SDS011;23341;50.296;18.960;2024-02-26T01:41:09;34.28;;;19.83;;
37485;SDS011;23341;50.296;18.960;2024-02-26T01:43:37;33.05;;;18.25;;
37485;SDS011;23341;50.296;18.960;2024-02-26T01:46:04;33.67;;;18.33;;
37485;SDS011;23341;50.296;18.960;2024-02-26T01:48:32;32.58;;;17.83;;
37485;SDS011;23341;50.296;18.960;2024-02-26T01:51:01;33.90;;;17.23;;
37485;SDS011;23341;50.296;18.960;2024-02-26T01:53:29;29.48;;;18.02;;
37485;SDS011;23341;50.296;18.960;2024-02-26T01:55:57;36.45;;;19.85;;
37485;SDS011;23341;50.296;18.960;2024-02-26T01:58:25;29.55;;;17.40;;
37485;SDS011;23341;50.296;18.960;2024-02-26T02:00:52;28.75;;;17.30;;
37485;SDS011;23341;50.296;18.960;2024-02-26T14:04:21;38.97;;;13.52;;
37485;SDS011;23341;50.296;18.960;2024-02-26T14:06:48;14.95;;;7.28;;
37485;SDS011;23341;50.296;18.960;2024-02-26T14:09:16;34.33;;;19.38;;
37485;SDS011;23341;50.296;18.960;2024-02-26T14:11:45;13.25;;;8.38;;
37485;SDS011;23341;50.296;18.960;2024-02-26T14:14:13;23.40;;;9.70;;
37485;SDS011;23341;50.296;18.960;2024-02-26T14:16:40;13.55;;;8.52;;
37485;SDS011;23341;50.296;18.960;2024-02-26T14:19:08;8.45;;;4.88;;
37485;SDS011;23341;50.296;18.960;2024-02-26T14:21:37;10.13;;;4.35;;
37485;SDS011;23341;50.296;18.960;2024-02-26T14:24:05;8.05;;;5.25;;
37485;SDS011;23341;50.296;18.960;2024-02-26T14:26:32;6.90;;;4.90;;
37485;SDS011;23341;50.296;18.960;2024-02-26T14:29:00;11.65;;;5.55;;
37485;SDS011;23341;50.296;18.960;2024-02-26T14:31:28;10.57;;;4.95;;
37485;SDS011;23341;50.296;18.960;2024-02-26T14:33:55;9.60;;;5.82;;
37485;SDS011;23341;50.296;18.960;2024-02-26T14:36:23;7.05;;;5.25;;
37485;SDS011;23341;50.296;18.960;2024-02-26T14:38:52;8.68;;;5.47;;
37485;SDS011;23341;50.296;18.960;2024-02-26T14:41:20;9.15;;;5.30;;
37485;SDS011;23341;50.296;18.960;2024-02-26T14:43:47;8.38;;;5.68;;
37485;SDS011;23341;50.296;18.960;2024-02-26T14:46:15;14.75;;;6.75;;
37485;SDS011;23341;50.296;18.960;2024-02-26T14:48:42;21.23;;;13.10;;
37485;SDS011;23341;50.296;18.960;2024-02-26T14:51:10;12.70;;;7.18;;
37485;SDS011;23341;50.296;18.960;2024-02-26T14:53:37;13.70;;;7.43;;
37485;SDS011;23341;50.296;18.960;2024-02-26T14:56:06;7.72;;;6.88;;
37485;SDS011;23341;50.296;18.960;2024-02-26T14:58:35;11.25;;;5.90;;
37485;SDS011;23341;50.296;18.960;2024-02-26T15:01:03;14.80;;;6.90;;
37485;SDS011;23341;50.296;18.960;2024-02-26T15:03:31;9.68;;;6.22;;
37485;SDS011;23341;50.296;18.960;2024-02-26T15:05:58;10.93;;;6.55;;
37485;SDS011;23341;50.296;18.960;2024-02-26T15:08:26;9.30;;;6.75;;
37485;SDS011;23341;50.296;18.960;2024-02-26T15:10:53;60.88;;;25.23;;
37485;SDS011;23341;50.296;18.960;2024-02-26T15:13:22;21.25;;;11.43;;
37485;SDS011;23341;50.296;18.960;2024-02-26T15:15:50;38.28;;;16.42;;
37485;SDS011;23341;50.296;18.960;2024-02-26T15:18:17;35.63;;;16.67;;
37485;SDS011;23341;50.296;18.960;2024-02-26T15:20:45;11.40;;;8.07;;
37485;SDS011;23341;50.296;18.960;2024-02-26T15:23:12;13.93;;;8.02;;
37485;SDS011;23341;50.296;18.960;2024-02-26T15:25:40;16.33;;;8.55;;
37485;SDS011;23341;50.296;18.960;2024-02-26T15:28:07;13.73;;;9.25;;
37485;SDS011;23341;50.296;18.960;2024-02-26T15:30:38;16.83;;;9.48;;
37485;SDS011;23341;50.296;18.960;2024-02-26T15:33:06;18.13;;;9.47;;
37485;SDS011;23341;50.296;18.960;2024-02-26T15:35:33;22.20;;;12.13;;
37485;SDS011;23341;50.296;18.960;2024-02-26T15:38:03;11.20;;;9.37;;
37485;SDS011;23341;50.296;18.960;2024-02-26T15:40:30;17.70;;;10.57;;
37485;SDS011;23341;50.296;18.960;2024-02-26T15:42:58;20.75;;;11.50;;
37485;SDS011;23341;50.296;18.960;2024-02-26T15:45:25;17.20;;;10.80;;
37485;SDS011;23341;50.296;18.960;2024-02-26T15:50:23;18.77;;;10.30;;
37485;SDS011;23341;50.296;18.960;2024-02-26T15:52:51;17.42;;;10.88;;
37485;SDS011;23341;50.296;18.960;2024-02-26T15:55:19;17.40;;;10.32;;
37485;SDS011;23341;50.296;18.960;2024-02-26T15:57:47;23.55;;;11.32;;
37485;SDS011;23341;50.296;18.960;2024-02-26T16:00:14;15.75;;;11.05;;
37485;SDS011;23341;50.296;18.960;2024-02-26T16:02:43;39.55;;;19.58;;
37485;SDS011;23341;50.296;18.960;2024-02-26T16:05:16;18.63;;;10.52;;
37485;SDS011;23341;50.296;18.960;2024-02-26T16:07:45;17.60;;;10.25;;
37485;SDS011;23341;50.296;18.960;2024-02-26T16:10:16;17.83;;;11.32;;
37485;SDS011;23341;50.296;18.960;2024-02-26T16:12:47;38.53;;;18.23;;
37485;SDS011;23341;50.296;18.960;2024-02-26T16:15:17;25.00;;;13.93;;
37485;SDS011;23341;50.296;18.960;2024-02-26T16:17:46;14.50;;;11.15;;
37485;SDS011;23341;50.296;18.960;2024-02-26T16:20:18;20.15;;;11.57;;
37485;SDS011;23341;50.296;18.960;2024-02-26T16:22:47;18.45;;;12.60;;
37485;SDS011;23341;50.296;18.960;2024-02-26T16:25:15;15.55;;;10.05;;
37485;SDS011;23341;50.296;18.960;2024-02-26T16:27:43;28.55;;;14.77;;
37485;SDS011;23341;50.296;18.960;2024-02-26T16:30:11;19.65;;;13.55;;
37485;SDS011;23341;50.296;18.960;2024-02-26T16:32:40;16.77;;;9.95;;
37485;SDS011;23341;50.296;18.960;2024-02-26T16:35:08;16.15;;;9.93;;
37485;SDS011;23341;50.296;18.960;2024-02-26T16:37:39;22.35;;;13.10;;
37485;SDS011;23341;50.296;18.960;2024-02-26T16:40:06;20.33;;;11.45;;
37485;SDS011;23341;50.296;18.960;2024-02-26T16:42:35;24.73;;;12.95;;
37485;SDS011;23341;50.296;18.960;2024-02-26T16:45:03;20.83;;;13.18;;
37485;SDS011;23341;50.296;18.960;2024-02-26T16:47:32;15.13;;;11.18;;
37485;SDS011;23341;50.296;18.960;2024-02-26T16:50:00;18.25;;;10.30;;
37485;SDS011;23341;50.296;18.960;2024-02-26T16:52:28;11.18;;;7.93;;
37485;SDS011;23341;50.296;18.960;2024-02-26T16:54:56;22.52;;;12.75;;
37485;SDS011;23341;50.296;18.960;2024-02-26T16:57:24;19.87;;;9.87;;
37485;SDS011;23341;50.296;18.960;2024-02-26T16:59:51;26.73;;;12.40;;
37485;SDS011;23341;50.296;18.960;2024-02-26T17:02:19;13.57;;;8.27;;
37485;SDS011;23341;50.296;18.960;2024-02-26T17:04:46;10.88;;;9.13;;
37485;SDS011;23341;50.296;18.960;2024-02-26T17:07:14;13.43;;;10.70;;
37485;SDS011;23341;50.296;18.960;2024-02-26T17:09:41;13.20;;;9.90;;
37485;SDS011;23341;50.296;18.960;2024-02-26T17:12:11;17.15;;;11.70;;
37485;SDS011;23341;50.296;18.960;2024-02-26T17:14:38;24.55;;;16.20;;
37485;SDS011;23341;50.296;18.960;2024-02-26T17:17:06;18.77;;;14.10;;
37485;SDS011;23341;50.296;18.960;2024-02-26T17:19:33;22.83;;;15.48;;
37485;SDS011;23341;50.296;18.960;2024-02-26T17:22:01;45.53;;;30.58;;
37485;SDS011;23341;50.296;18.960;2024-02-26T17:24:28;29.20;;;17.40;;
37485;SDS011;23341;50.296;18.960;2024-02-26T17:26:56;21.75;;;13.52;;
37485;SDS011;23341;50.296;18.960;2024-02-26T17:29:24;11.57;;;10.15;;
37485;SDS011;23341;50.296;18.960;2024-02-26T17:31:52;21.63;;;15.30;;
37485;SDS011;23341;50.296;18.960;2024-02-26T17:34:19;16.25;;;10.25;;
37485;SDS011;23341;50.296;18.960;2024-02-26T17:36:47;14.15;;;9.90;;
37485;SDS011;23341;50.296;18.960;2024-02-26T17:39:14;21.35;;;12.10;;
37485;SDS011;23341;50.296;18.960;2024-02-26T17:41:42;13.13;;;10.45;;
37485;SDS011;23341;50.296;18.960;2024-02-26T17:44:10;17.23;;;11.80;;
37485;SDS011;23341;50.296;18.960;2024-02-26T17:46:40;16.75;;;11.23;;
37485;SDS011;23341;50.296;18.960;2024-02-26T17:49:07;15.85;;;8.32;;
37485;SDS011;23341;50.296;18.960;2024-02-26T17:51:35;9.70;;;7.78;;
37485;SDS011;23341;50.296;18.960;2024-02-26T17:54:03;10.13;;;8.40;;
37485;SDS011;23341;50.296;18.960;2024-02-26T17:56:30;11.82;;;9.18;;
37485;SDS011;23341;50.296;18.960;2024-02-26T17:58:57;13.93;;;8.60;;
37485;SDS011;23341;50.296;18.960;2024-02-26T18:01:26;15.15;;;10.50;;
37485;SDS011;23341;50.296;18.960;2024-02-26T18:03:55;12.38;;;9.82;;
37485;SDS011;23341;50.296;18.960;2024-02-26T18:06:22;29.90;;;18.75;;
37485;SDS011;23341;50.296;18.960;2024-02-26T18:08:50;17.50;;;12.07;;
37485;SDS011;23341;50.296;18.960;2024-02-26T18:11:18;26.88;;;14.48;;
37485;SDS011;23341;50.296;18.960;2024-02-26T18:13:45;20.35;;;14.82;;
37485;SDS011;23341;50.296;18.960;2024-02-26T18:16:12;14.50;;;12.10;;
37485;SDS011;23341;50.296;18.960;2024-02-26T18:18:40;24.52;;;15.02;;
37485;SDS011;23341;50.296;18.960;2024-02-26T18:21:13;17.13;;;12.68;;
37485;SDS011;23341;50.296;18.960;2024-02-26T18:26:09;22.33;;;13.70;;
37485;SDS011;23341;50.296;18.960;2024-02-26T18:28:38;14.48;;;12.23;;
37485;SDS011;23341;50.296;18.960;2024-02-26T18:31:05;18.17;;;13.00;;
37485;SDS011;23341;50.296;18.960;2024-02-26T18:33:32;16.42;;;12.38;;
37485;SDS011;23341;50.296;18.960;2024-02-26T18:36:01;16.58;;;12.20;;
37485;SDS011;23341;50.296;18.960;2024-02-26T18:38:32;18.58;;;12.30;;
37485;SDS011;23341;50.296;18.960;2024-02-26T18:41:00;21.30;;;13.07;;
37485;SDS011;23341;50.296;18.960;2024-02-26T18:43:28;15.40;;;11.48;;
37485;SDS011;23341;50.296;18.960;2024-02-26T18:45:56;16.13;;;12.00;;
37485;SDS011;23341;50.296;18.960;2024-02-26T18:48:24;21.33;;;13.75;;
37485;SDS011;23341;50.296;18.960;2024-02-26T18:50:52;20.85;;;14.85;;
37485;SDS011;23341;50.296;18.960;2024-02-26T18:53:19;18.05;;;13.68;;
37485;SDS011;23341;50.296;18.960;2024-02-26T18:55:48;26.35;;;16.58;;
37485;SDS011;23341;50.296;18.960;2024-02-26T18:58:15;24.25;;;15.07;;
37485;SDS011;23341;50.296;18.960;2024-02-26T19:00:43;52.10;;;23.40;;
37485;SDS011;23341;50.296;18.960;2024-02-26T19:03:11;26.35;;;15.25;;
37485;SDS011;23341;50.296;18.960;2024-02-26T19:05:39;21.60;;;15.38;;
37485;SDS011;23341;50.296;18.960;2024-02-26T19:08:06;22.83;;;15.23;;
37485;SDS011;23341;50.296;18.960;2024-02-26T19:10:34;21.05;;;15.05;;
37485;SDS011;23341;50.296;18.960;2024-02-26T19:13:03;26.02;;;15.70;;
37485;SDS011;23341;50.296;18.960;2024-02-26T19:15:30;26.75;;;16.85;;
37485;SDS011;23341;50.296;18.960;2024-02-26T19:17:59;28.17;;;17.00;;
37485;SDS011;23341;50.296;18.960;2024-02-26T19:20:27;30.35;;;18.45;;
37485;SDS011;23341;50.296;18.960;2024-02-26T19:22:54;29.98;;;18.25;;
37485;SDS011;23341;50.296;18.960;2024-02-26T19:25:22;31.17;;;18.73;;
37485;SDS011;23341;50.296;18.960;2024-02-26T19:27:49;37.20;;;22.00;;
37485;SDS011;23341;50.296;18.960;2024-02-26T19:30:19;26.90;;;19.08;;
37485;SDS011;23341;50.296;18.960;2024-02-26T19:32:46;48.15;;;22.90;;
37485;SDS011;23341;50.296;18.960;2024-02-26T19:35:14;25.65;;;17.30;;
37485;SDS011;23341;50.296;18.960;2024-02-26T19:37:41;35.30;;;22.60;;
37485;SDS011;23341;50.296;18.960;2024-02-26T19:40:11;73.90;;;35.22;;
37485;SDS011;23341;50.296;18.960;2024-02-26T19:42:39;128.35;;;54.40;;
37485;SDS011;23341;50.296;18.960;2024-02-26T19:45:08;225.45;;;88.30;;
37485;SDS011;23341;50.296;18.960;2024-02-26T19:47:38;81.78;;;37.85;;
37485;SDS011;23341;50.296;18.960;2024-02-26T19:50:07;136.45;;;56.40;;
37485;SDS011;23341;50.296;18.960;2024-02-26T19:52:35;101.15;;;44.63;;
37485;SDS011;23341;50.296;18.960;2024-02-26T19:55:03;141.80;;;61.20;;
37485;SDS011;23341;50.296;18.960;2024-02-26T19:57:33;51.35;;;30.98;;
37485;SDS011;23341;50.296;18.960;2024-02-26T20:00:01;50.17;;;29.50;;
37485;SDS011;23341;50.296;18.960;2024-02-26T20:02:29;54.38;;;32.35;;
37485;SDS011;23341;50.296;18.960;2024-02-26T20:04:58;57.90;;;33.10;;
37485;SDS011;23341;50.296;18.960;2024-02-26T20:07:25;58.22;;;32.55;;
37485;SDS011;23341;50.296;18.960;2024-02-26T20:09:54;47.70;;;25.98;;
37485;SDS011;23341;50.296;18.960;2024-02-26T20:12:21;41.00;;;25.02;;
37485;SDS011;23341;50.296;18.960;2024-02-26T20:14:49;38.13;;;24.40;;
37485;SDS011;23341;50.296;18.960;2024-02-26T20:17:16;52.08;;;28.40;;
37485;SDS011;23341;50.296;18.960;2024-02-26T20:19:45;37.70;;;25.08;;
37485;SDS011;23341;50.296;18.960;2024-02-26T20:22:13;39.88;;;23.90;;
37485;SDS011;23341;50.296;18.960;2024-02-26T20:24:41;41.88;;;25.95;;
37485;SDS011;23341;50.296;18.960;2024-02-26T20:27:09;29.48;;;21.35;;
37485;SDS011;23341;50.296;18.960;2024-02-26T20:29:37;35.97;;;23.85;;
37485;SDS011;23341;50.296;18.960;2024-02-26T20:32:04;38.40;;;24.42;;
37485;SDS011;23341;50.296;18.960;2024-02-26T20:34:33;35.42;;;22.35;;
37485;SDS011;23341;50.296;18.960;2024-02-26T20:37:00;31.52;;;22.42;;
37485;SDS011;23341;50.296;18.960;2024-02-26T20:39:30;40.10;;;27.23;;
37485;SDS011;23341;50.296;18.960;2024-02-26T20:41:57;38.35;;;25.50;;
37485;SDS011;23341;50.296;18.960;2024-02-26T20:44:24;33.22;;;24.55;;
37485;SDS011;23341;50.296;18.960;2024-02-26T20:46:52;43.92;;;32.72;;
37485;SDS011;23341;50.296;18.960;2024-02-26T20:49:24;147.57;;;61.85;;
37485;SDS011;23341;50.296;18.960;2024-02-26T20:51:51;153.98;;;64.45;;
37485;SDS011;23341;50.296;18.960;2024-02-26T20:54:19;102.28;;;44.33;;
37485;SDS011;23341;50.296;18.960;2024-02-26T20:56:48;171.65;;;67.25;;
37485;SDS011;23341;50.296;18.960;2024-02-26T20:59:16;67.80;;;33.90;;
37485;SDS011;23341;50.296;18.960;2024-02-26T21:04:14;51.42;;;28.90;;
37485;SDS011;23341;50.296;18.960;2024-02-26T21:06:41;42.40;;;26.38;;
37485;SDS011;23341;50.296;18.960;2024-02-26T21:09:08;43.65;;;26.67;;
37485;SDS011;23341;50.296;18.960;2024-02-26T21:11:37;44.83;;;26.55;;
37485;SDS011;23341;50.296;18.960;2024-02-26T21:14:08;42.60;;;30.15;;
37485;SDS011;23341;50.296;18.960;2024-02-26T21:16:36;60.03;;;32.42;;
37485;SDS011;23341;50.296;18.960;2024-02-26T21:19:04;42.10;;;27.10;;
37485;SDS011;23341;50.296;18.960;2024-02-26T21:21:32;41.80;;;26.05;;
37485;SDS011;23341;50.296;18.960;2024-02-26T21:24:01;46.88;;;27.27;;
37485;SDS011;23341;50.296;18.960;2024-02-26T21:26:27;46.00;;;26.13;;
37485;SDS011;23341;50.296;18.960;2024-02-26T21:28:55;39.40;;;25.50;;
37485;SDS011;23341;50.296;18.960;2024-02-26T21:31:24;35.80;;;25.05;;
37485;SDS011;23341;50.296;18.960;2024-02-26T21:33:51;37.27;;;23.07;;
37485;SDS011;23341;50.296;18.960;2024-02-26T21:36:19;44.30;;;32.15;;
37485;SDS011;23341;50.296;18.960;2024-02-26T21:38:46;48.50;;;32.30;;
37485;SDS011;23341;50.296;18.960;2024-02-26T21:41:14;42.22;;;28.25;;
37485;SDS011;23341;50.296;18.960;2024-02-26T21:43:43;39.15;;;26.70;;
37485;SDS011;23341;50.296;18.960;2024-02-26T21:46:15;37.03;;;24.52;;
37485;SDS011;23341;50.296;18.960;2024-02-26T21:48:44;69.07;;;47.40;;
37485;SDS011;23341;50.296;18.960;2024-02-26T21:51:11;56.45;;;34.97;;
37485;SDS011;23341;50.296;18.960;2024-02-26T21:53:39;134.00;;;56.60;;
37485;SDS011;23341;50.296;18.960;2024-02-26T21:56:07;99.82;;;48.33;;
37485;SDS011;23341;50.296;18.960;2024-02-26T21:58:34;129.45;;;55.00;;
37485;SDS011;23341;50.296;18.960;2024-02-26T22:01:02;101.25;;;45.25;;
37485;SDS011;23341;50.296;18.960;2024-02-26T22:03:29;102.10;;;45.40;;
37485;SDS011;23341;50.296;18.960;2024-02-26T22:05:58;63.30;;;32.78;;
37485;SDS011;23341;50.296;18.960;2024-02-26T22:08:26;77.97;;;40.60;;
37485;SDS011;23341;50.296;18.960;2024-02-26T22:10:53;53.33;;;29.85;;
37485;SDS011;23341;50.296;18.960;2024-02-26T22:13:21;77.68;;;38.88;;
37485;SDS011;23341;50.296;18.960;2024-02-26T22:15:48;77.30;;;39.88;;
37485;SDS011;23341;50.296;18.960;2024-02-26T22:18:16;73.88;;;38.00;;
37485;SDS011;23341;50.296;18.960;2024-02-26T22:20:43;72.10;;;40.35;;
37485;SDS011;23341;50.296;18.960;2024-02-26T22:23:12;66.85;;;39.28;;
37485;SDS011;23341;50.296;18.960;2024-02-26T22:25:39;66.95;;;36.00;;
37485;SDS011;23341;50.296;18.960;2024-02-26T22:28:07;86.88;;;46.72;;
37485;SDS011;23341;50.296;18.960;2024-02-26T22:30:34;46.22;;;30.40;;
37485;SDS011;23341;50.296;18.960;2024-02-26T22:33:03;221.17;;;132.17;;
37485;SDS011;23341;50.296;18.960;2024-02-26T22:35:31;86.90;;;51.08;;
37485;SDS011;23341;50.296;18.960;2024-02-26T22:37:58;55.00;;;34.20;;
37485;SDS011;23341;50.296;18.960;2024-02-26T22:40:27;55.05;;;36.25;;
37485;SDS011;23341;50.296;18.960;2024-02-26T22:42:55;51.13;;;31.35;;
37485;SDS011;23341;50.296;18.960;2024-02-26T22:45:22;47.33;;;33.35;;
37485;SDS011;23341;50.296;18.960;2024-02-26T22:47:52;45.35;;;32.67;;
37485;SDS011;23341;50.296;18.960;2024-02-26T22:50:19;44.10;;;28.85;;
37485;SDS011;23341;50.296;18.960;2024-02-26T22:52:47;42.00;;;29.08;;
37485;SDS011;23341;50.296;18.960;2024-02-26T22:55:16;50.63;;;30.02;;
37485;SDS011;23341;50.296;18.960;2024-02-26T22:57:45;46.30;;;29.65;;
37485;SDS011;23341;50.296;18.960;2024-02-26T23:00:13;44.50;;;29.27;;
37485;SDS011;23341;50.296;18.960;2024-02-26T23:02:52;49.53;;;29.85;;
37485;SDS011;23341;50.296;18.960;2024-02-26T23:05:21;43.45;;;27.42;;
37485;SDS011;23341;50.296;18.960;2024-02-26T23:07:49;45.13;;;28.42;;
37485;SDS011;23341;50.296;18.960;2024-02-26T23:10:17;51.17;;;28.70;;
37485;SDS011;23341;50.296;18.960;2024-02-26T23:12:46;45.35;;;28.15;;
37485;SDS011;23341;50.296;18.960;2024-02-26T23:15:13;48.50;;;28.50;;
37485;SDS011;23341;50.296;18.960;2024-02-26T23:17:41;60.00;;;33.00;;
37485;SDS011;23341;50.296;18.960;2024-02-26T23:20:09;50.83;;;30.13;;
37485;SDS011;23341;50.296;18.960;2024-02-26T23:25:08;53.20;;;32.67;;
37485;SDS011;23341;50.296;18.960;2024-02-26T23:27:37;54.88;;;34.60;;
37485;SDS011;23341;50.296;18.960;2024-02-26T23:30:07;55.42;;;34.17;;
37485;SDS011;23341;50.296;18.960;2024-02-26T23:32:36;50.95;;;32.75;;
37485;SDS011;23341;50.296;18.960;2024-02-26T23:35:04;60.08;;;36.35;;
37485;SDS011;23341;50.296;18.960;2024-02-26T23:37:32;53.67;;;34.00;;
37485;SDS011;23341;50.296;18.960;2024-02-26T23:40:00;56.65;;;33.10;;
37485;SDS011;23341;50.296;18.960;2024-02-26T23:42:28;55.95;;;35.70;;
37485;SDS011;23341;50.296;18.960;2024-02-26T23:44:55;54.45;;;34.30;;
37485;SDS011;23341;50.296;18.960;2024-02-26T23:47:25;52.30;;;33.30;;
37485;SDS011;23341;50.296;18.960;2024-02-26T23:49:52;54.97;;;33.05;;
37485;SDS011;23341;50.296;18.960;2024-02-26T23:52:21;52.42;;;32.60;;
37485;SDS011;23341;50.296;18.960;2024-02-26T23:54:48;51.50;;;32.13;;
37485;SDS011;23341;50.296;18.960;2024-02-26T23:57:16;56.85;;;33.97;;
37485;SDS011;23341;50.296;18.960;2024-02-26T23:59:43;53.60;;;33.42;;
